Time;durP1;ratioP1;P1;durP2;ratioP2;P2;SDS_P1;SDS_P2;PMS_P1;PMS_P2;Temp;Humidity;BMP_temperature;BMP_pressure;BME280_temperature;BME280_humidity;BME280_pressure;Samples;Min_cycle;Max_cycle;Signal;HPM_P1;HPM_P2
2023/08/22 00:01:00;;;;;;;8.60;5.75;;;19.10;99.90;;;;;;5049418;28;20049;-74
2023/08/22 00:03:25;;;;;;;11.35;6.55;;;19.20;99.90;;;;;;5044006;28;20136;-75
2023/08/22 00:05:51;;;;;;;7.25;5.90;;;19.20;99.90;;;;;;5046817;28;20152;-75
2023/08/22 00:08:17;;;;;;;10.40;6.10;;;19.20;99.90;;;;;;5050328;28;20048;-75
2023/08/22 00:10:42;;;;;;;9.82;5.93;;;19.30;99.90;;;;;;5045363;28;20060;-75
2023/08/22 00:13:08;;;;;;;10.38;6.60;;;19.20;99.90;;;;;;5048972;28;20037;-75
2023/08/22 00:15:34;;;;;;;12.50;6.40;;;19.20;99.90;;;;;;5048220;28;20049;-75
2023/08/22 00:17:59;;;;;;;9.45;6.80;;;19.20;99.90;;;;;;5041825;28;20083;-75
2023/08/22 00:20:25;;;;;;;12.20;6.72;;;19.20;99.90;;;;;;5045929;28;20098;-75
2023/08/22 00:22:51;;;;;;;7.57;6.38;;;19.20;99.90;;;;;;5048007;28;20033;-75
2023/08/22 00:25:17;;;;;;;12.25;6.68;;;19.30;99.90;;;;;;5045257;28;20052;-75
2023/08/22 00:27:42;;;;;;;11.95;7.03;;;19.30;99.90;;;;;;5044981;28;20075;-75
2023/08/22 00:30:08;;;;;;;10.05;6.80;;;19.30;99.90;;;;;;5040609;28;20067;-75
2023/08/22 00:32:35;;;;;;;10.77;6.80;;;19.30;99.90;;;;;;5049878;28;20614;-75
2023/08/22 00:35:00;;;;;;;9.85;6.55;;;19.30;99.90;;;;;;5044634;28;20559;-75
2023/08/22 00:37:27;;;;;;;9.82;5.95;;;19.30;99.90;;;;;;5046083;28;20144;-74
2023/08/22 00:39:54;;;;;;;10.88;6.20;;;19.30;99.90;;;;;;5037948;28;20484;-75
2023/08/22 00:42:20;;;;;;;8.75;5.93;;;19.40;99.90;;;;;;5043531;28;20044;-74
2023/08/22 00:44:46;;;;;;;10.25;6.00;;;19.40;99.90;;;;;;5060616;28;20044;-75
2023/08/22 00:47:12;;;;;;;9.95;6.40;;;19.40;99.90;;;;;;5033566;28;20420;-75
2023/08/22 00:49:39;;;;;;;8.53;5.83;;;19.40;99.90;;;;;;5039180;28;20553;-74
2023/08/22 00:52:05;;;;;;;8.80;5.75;;;19.40;99.90;;;;;;5041893;28;20072;-74
2023/08/22 00:54:32;;;;;;;9.52;5.60;;;19.40;99.90;;;;;;5038097;28;20116;-74
2023/08/22 00:56:58;;;;;;;8.55;4.95;;;19.40;99.90;;;;;;5040430;28;20055;-74
2023/08/22 00:59:26;;;;;;;9.52;4.82;;;19.40;99.90;;;;;;5034835;28;20052;-75
2023/08/22 01:01:52;;;;;;;8.73;4.90;;;19.40;99.90;;;;;;5046083;28;20060;-75
2023/08/22 01:04:19;;;;;;;8.35;5.55;;;19.40;99.90;;;;;;5038175;28;20087;-74
2023/08/22 01:07:09;;;;;;;12.43;6.40;;;19.40;99.90;;;;;;5043313;28;20073;-74
2023/08/22 01:09:44;;;;;;;11.23;6.78;;;19.30;99.90;;;;;;5046852;28;20041;-74
2023/08/22 01:12:40;;;;;;;12.00;7.15;;;19.30;99.90;;;;;;5040507;28;20044;-74
2023/08/22 01:15:13;;;;;;;10.85;6.80;;;19.30;99.90;;;;;;5042207;28;20052;-75
2023/08/22 01:17:39;;;;;;;12.95;6.97;;;19.20;99.90;;;;;;5047711;28;20045;-74
2023/08/22 01:20:11;;;;;;;11.15;6.85;;;19.20;99.90;;;;;;5046904;28;20048;-74
2023/08/22 01:22:37;;;;;;;9.75;7.00;;;19.10;99.90;;;;;;5041498;28;20049;-75
2023/08/22 01:25:04;;;;;;;11.43;7.05;;;19.10;99.90;;;;;;5039287;28;20563;-75
2023/08/22 01:27:33;;;;;;;11.00;7.38;;;19.10;99.90;;;;;;5039952;28;20496;-74
2023/08/22 01:30:08;;;;;;;12.27;7.18;;;19.00;99.90;;;;;;5047898;28;20045;-74
2023/08/22 01:32:38;;;;;;;11.20;7.13;;;19.10;99.90;;;;;;5038782;28;20051;-74
2023/08/22 01:35:07;;;;;;;11.00;7.65;;;19.00;99.90;;;;;;5040977;28;20051;-75
2023/08/22 01:37:35;;;;;;;9.98;6.40;;;19.00;99.90;;;;;;5045713;28;20058;-73
2023/08/22 01:40:05;;;;;;;8.57;6.50;;;19.00;99.90;;;;;;5040239;28;20408;-75
2023/08/22 01:42:31;;;;;;;10.88;7.13;;;18.90;99.90;;;;;;5040810;28;20052;-75
2023/08/22 01:44:56;;;;;;;11.13;6.55;;;18.90;99.90;;;;;;5044697;28;20106;-75
2023/08/22 01:47:22;;;;;;;10.75;6.40;;;18.90;99.90;;;;;;5047202;28;20052;-75
2023/08/22 01:49:47;;;;;;;11.85;6.80;;;18.90;99.90;;;;;;5048263;28;20442;-75
2023/08/22 01:52:13;;;;;;;10.70;6.68;;;18.90;99.90;;;;;;5043857;28;20045;-75
2023/08/22 01:54:39;;;;;;;8.90;6.28;;;18.80;99.90;;;;;;5042927;28;20048;-75
2023/08/22 01:57:05;;;;;;;9.07;6.63;;;18.80;99.90;;;;;;5047948;28;20833;-75
2023/08/22 01:59:30;;;;;;;10.25;6.80;;;18.80;99.90;;;;;;5048116;28;20373;-74
2023/08/22 02:01:56;;;;;;;11.45;6.85;;;18.80;99.90;;;;;;5041119;28;20037;-74
2023/08/22 02:04:21;;;;;;;11.80;6.60;;;18.80;99.90;;;;;;5048010;28;20049;-74
2023/08/22 02:06:47;;;;;;;10.07;6.95;;;18.90;99.90;;;;;;5044019;28;20041;-75
2023/08/22 02:09:13;;;;;;;10.15;6.75;;;18.80;99.90;;;;;;5049747;28;20045;-75
2023/08/22 02:11:39;;;;;;;8.52;6.43;;;18.80;99.90;;;;;;5041894;28;20045;-75
2023/08/22 02:14:05;;;;;;;12.43;7.10;;;18.80;99.90;;;;;;5049457;28;20082;-75
2023/08/22 02:16:31;;;;;;;11.88;6.90;;;18.80;99.90;;;;;;5044989;28;20037;-74
2023/08/22 02:18:56;;;;;;;13.80;7.47;;;18.80;99.90;;;;;;5046802;28;20037;-75
2023/08/22 02:21:22;;;;;;;10.30;7.25;;;18.70;99.90;;;;;;5036804;28;20042;-75
2023/08/22 02:23:48;;;;;;;12.60;7.38;;;18.80;99.90;;;;;;5046986;28;20040;-75
2023/08/22 02:26:13;;;;;;;11.68;7.70;;;18.70;99.90;;;;;;5052632;28;20053;-75
2023/08/22 02:28:39;;;;;;;12.18;7.90;;;18.70;99.90;;;;;;5049043;28;20529;-75
2023/08/22 02:31:05;;;;;;;13.75;7.45;;;18.70;99.90;;;;;;5045926;28;20032;-75
2023/08/22 02:33:30;;;;;;;11.02;7.10;;;18.70;99.90;;;;;;5061295;28;20107;-74
2023/08/22 02:35:56;;;;;;;10.98;6.78;;;18.60;99.90;;;;;;5047237;28;20055;-75
2023/08/22 02:38:22;;;;;;;12.02;7.55;;;18.70;99.90;;;;;;5038177;28;20045;-75
2023/08/22 02:40:47;;;;;;;9.95;6.97;;;18.60;99.90;;;;;;5050726;28;20040;-75
2023/08/22 02:43:13;;;;;;;9.95;7.60;;;18.60;99.90;;;;;;5051015;28;20045;-75
2023/08/22 02:45:39;;;;;;;10.70;7.22;;;18.60;99.90;;;;;;5057813;28;20072;-75
2023/08/22 02:48:05;;;;;;;11.50;7.72;;;18.60;99.90;;;;;;5043272;28;20152;-75
2023/08/22 02:50:31;;;;;;;13.40;7.70;;;18.50;99.90;;;;;;5038386;28;20097;-75
2023/08/22 02:52:57;;;;;;;9.95;8.00;;;18.50;99.90;;;;;;5036203;28;20049;-73
2023/08/22 02:55:22;;;;;;;11.75;7.90;;;18.60;99.90;;;;;;5045504;28;20041;-76
2023/08/22 02:57:48;;;;;;;10.13;7.78;;;18.50;99.90;;;;;;5058691;28;20111;-77
2023/08/22 03:00:14;;;;;;;10.80;7.95;;;18.50;99.90;;;;;;5056319;28;20399;-76
2023/08/22 03:02:40;;;;;;;11.65;7.75;;;18.50;99.90;;;;;;5050875;28;20132;-76
2023/08/22 03:05:11;;;;;;;10.98;7.82;;;18.50;99.90;;;;;;5050966;28;20114;-76
2023/08/22 03:07:37;;;;;;;12.50;8.00;;;18.40;99.90;;;;;;5046075;28;20044;-78
2023/08/22 03:10:03;;;;;;;13.07;8.27;;;18.40;99.90;;;;;;5051553;28;20515;-75
2023/08/22 03:12:28;;;;;;;10.75;7.68;;;18.40;99.90;;;;;;5046863;28;20136;-76
2023/08/22 03:14:54;;;;;;;11.43;7.97;;;18.40;99.90;;;;;;5050052;28;20033;-75
2023/08/22 03:17:20;;;;;;;12.07;7.88;;;18.40;99.90;;;;;;5042123;28;20033;-77
2023/08/22 03:19:45;;;;;;;14.80;8.23;;;18.40;99.90;;;;;;5050300;28;20036;-75
2023/08/22 03:22:11;;;;;;;13.23;8.25;;;18.30;99.90;;;;;;5046761;28;20471;-74
2023/08/22 03:24:37;;;;;;;10.80;8.10;;;18.30;99.90;;;;;;5051021;28;20465;-76
2023/08/22 03:27:03;;;;;;;12.20;8.82;;;18.30;99.90;;;;;;5051770;28;20045;-76
2023/08/22 03:29:28;;;;;;;12.55;9.32;;;18.30;99.90;;;;;;5054335;28;20037;-76
2023/08/22 03:31:55;;;;;;;14.63;9.20;;;18.30;99.90;;;;;;5042540;28;20037;-74
2023/08/22 03:34:21;;;;;;;;;;;18.30;99.90;;;;;;5038396;28;20048;-73
2023/08/22 03:36:47;;;;;;;11.60;8.95;;;18.20;99.90;;;;;;5049644;28;19973;-73
2023/08/22 03:39:12;;;;;;;13.48;10.30;;;18.20;99.90;;;;;;5052285;28;20077;-74
2023/08/22 03:41:38;;;;;;;13.40;9.85;;;18.10;99.90;;;;;;5042670;28;20041;-73
2023/08/22 03:44:04;;;;;;;13.68;9.52;;;18.10;99.90;;;;;;5049427;28;20041;-72
2023/08/22 03:46:29;;;;;;;12.20;9.98;;;18.10;99.90;;;;;;5051239;28;20036;-73
2023/08/22 03:48:55;;;;;;;14.50;10.48;;;18.10;99.90;;;;;;5060960;28;20045;-74
2023/08/22 03:51:21;;;;;;;12.77;10.20;;;18.10;99.90;;;;;;5041959;28;20041;-75
2023/08/22 03:53:47;;;;;;;14.35;10.60;;;18.00;99.90;;;;;;5039056;28;20045;-76
2023/08/22 03:56:12;;;;;;;12.43;10.18;;;18.00;99.90;;;;;;5049215;28;20037;-74
2023/08/22 03:58:38;;;;;;;15.02;9.60;;;18.00;99.90;;;;;;5035683;28;20052;-74
2023/08/22 04:01:04;;;;;;;13.23;9.95;;;18.00;99.90;;;;;;5043064;28;20536;-73
2023/08/22 04:03:30;;;;;;;11.98;9.57;;;18.00;99.90;;;;;;5049694;28;20061;-74
2023/08/22 04:05:58;;;;;;;14.43;10.23;;;17.90;99.90;;;;;;5047800;28;20045;-75
2023/08/22 04:08:24;;;;;;;14.82;10.10;;;18.00;99.90;;;;;;5050366;28;20051;-74
2023/08/22 04:10:51;;;;;;;12.23;9.75;;;18.00;99.90;;;;;;5045263;28;20103;-74
2023/08/22 04:13:17;;;;;;;14.68;10.43;;;17.90;99.90;;;;;;5062087;28;20086;-73
2023/08/22 04:15:43;;;;;;;13.48;10.63;;;17.90;99.90;;;;;;5050936;28;20045;-75
2023/08/22 04:18:08;;;;;;;13.02;10.00;;;17.90;99.90;;;;;;5046297;28;20489;-75
2023/08/22 04:20:34;;;;;;;11.88;10.48;;;17.90;99.90;;;;;;5051523;28;20053;-76
2023/08/22 04:23:00;;;;;;;13.85;11.32;;;17.90;99.90;;;;;;5048754;28;20052;-77
2023/08/22 04:25:25;;;;;;;19.48;12.38;;;17.90;99.90;;;;;;5044020;28;20041;-78
2023/08/22 04:27:51;;;;;;;17.40;12.10;;;17.90;99.90;;;;;;5047197;28;20047;-73
2023/08/22 04:30:16;;;;;;;15.05;11.38;;;17.90;99.90;;;;;;5044892;28;20044;-74
2023/08/22 04:32:43;;;;;;;12.60;11.30;;;17.90;99.90;;;;;;5042528;28;20044;-74
2023/08/22 04:35:09;;;;;;;13.33;10.53;;;17.90;99.90;;;;;;5048801;28;20053;-74
2023/08/22 04:37:34;;;;;;;12.65;11.20;;;17.90;99.90;;;;;;5048667;28;20037;-74
2023/08/22 04:40:03;;;;;;;14.48;10.90;;;17.90;99.90;;;;;;5049688;28;20041;-75
2023/08/22 04:42:29;;;;;;;13.43;11.05;;;17.90;99.90;;;;;;5036097;28;20084;-75
2023/08/22 04:44:56;;;;;;;13.25;10.55;;;17.90;99.90;;;;;;5040895;28;20079;-76
2023/08/22 04:47:21;;;;;;;12.03;10.00;;;17.80;99.90;;;;;;5045025;28;20049;-79
2023/08/22 04:49:47;;;;;;;13.25;10.48;;;17.80;99.90;;;;;;5044090;28;20326;-78
2023/08/22 04:52:13;;;;;;;14.55;10.60;;;17.80;99.90;;;;;;5043609;28;20044;-80
2023/08/22 04:54:38;;;;;;;15.60;10.35;;;17.80;99.90;;;;;;5049525;28;20504;-82
2023/08/22 04:57:04;;;;;;;12.23;10.20;;;17.80;99.90;;;;;;5047154;28;20087;-79
2023/08/22 04:59:30;;;;;;;12.85;10.07;;;17.80;99.90;;;;;;5045428;28;20131;-81
2023/08/22 05:01:55;;;;;;;12.50;10.85;;;17.80;99.90;;;;;;5044583;28;20044;-79
2023/08/22 05:04:21;;;;;;;11.88;10.68;;;17.80;99.90;;;;;;5041238;28;20144;-80
2023/08/22 05:06:47;;;;;;;15.15;10.93;;;17.80;99.90;;;;;;5045528;28;20044;-79
2023/08/22 05:09:16;;;;;;;12.80;9.95;;;17.80;99.90;;;;;;5046563;28;20049;-79
2023/08/22 05:11:42;;;;;;;12.65;10.02;;;17.80;99.90;;;;;;5048307;28;20037;-77
2023/08/22 05:14:08;;;;;;;11.70;10.52;;;17.80;99.90;;;;;;5038190;28;20055;-79
2023/08/22 05:16:35;;;;;;;11.45;9.93;;;17.80;99.90;;;;;;5044811;28;20072;-77
2023/08/22 05:19:00;;;;;;;14.95;11.00;;;17.80;99.90;;;;;;5050957;28;20043;-80
2023/08/22 05:21:26;;;;;;;13.80;11.63;;;17.80;99.90;;;;;;5044747;28;20143;-75
2023/08/22 05:23:52;;;;;;;16.65;12.10;;;17.80;99.90;;;;;;5044293;28;20044;-77
2023/08/22 05:26:17;;;;;;;16.60;12.57;;;17.80;99.90;;;;;;5042017;28;20045;-75
2023/08/22 05:28:43;;;;;;;12.88;10.93;;;17.80;99.90;;;;;;5048906;28;20045;-76
2023/08/22 05:31:17;;;;;;;18.08;12.38;;;17.80;99.90;;;;;;5042136;28;20037;-84
2023/08/22 05:33:43;;;;;;;13.43;11.75;;;17.80;99.90;;;;;;5040806;28;20048;-77
2023/08/22 05:36:08;;;;;;;13.93;11.65;;;17.80;99.90;;;;;;5048056;28;20048;-75
2023/08/22 05:38:34;;;;;;;15.43;12.40;;;17.90;99.90;;;;;;5045120;28;20044;-74
2023/08/22 05:41:00;;;;;;;20.17;14.20;;;17.90;99.90;;;;;;5039957;28;20037;-75
2023/08/22 05:43:25;;;;;;;15.45;13.32;;;18.00;99.90;;;;;;5039731;28;20066;-76
2023/08/22 05:45:51;;;;;;;14.45;12.93;;;18.00;99.90;;;;;;5046315;28;20032;-76
2023/08/22 05:48:17;;;;;;;14.30;12.82;;;18.10;99.90;;;;;;5046427;28;20045;-76
2023/08/22 05:50:42;;;;;;;14.80;13.20;;;18.10;99.90;;;;;;5041051;28;20045;-76
2023/08/22 05:53:08;;;;;;;14.45;12.95;;;18.20;99.90;;;;;;5041530;28;20064;-75
2023/08/22 05:55:34;;;;;;;15.27;13.68;;;18.20;99.90;;;;;;5035073;28;20029;-75
2023/08/22 05:57:59;;;;;;;18.50;14.07;;;18.30;99.90;;;;;;5048713;28;20412;-75
2023/08/22 06:00:25;;;;;;;16.90;14.98;;;18.30;99.90;;;;;;5047269;28;20072;-75
2023/08/22 06:02:50;;;;;;;18.63;14.02;;;18.40;99.90;;;;;;5048270;28;20041;-75
2023/08/22 06:05:16;;;;;;;16.27;13.65;;;18.40;99.90;;;;;;5048822;28;20053;-75
2023/08/22 06:07:42;;;;;;;15.35;13.30;;;18.40;99.90;;;;;;5042806;28;20503;-74
2023/08/22 06:10:08;;;;;;;18.52;13.32;;;18.50;99.90;;;;;;5036346;28;20040;-75
2023/08/22 06:12:33;;;;;;;16.40;13.90;;;18.50;99.90;;;;;;5049587;28;20037;-75
2023/08/22 06:14:59;;;;;;;19.00;14.32;;;18.50;99.90;;;;;;5048620;28;20455;-75
2023/08/22 06:17:25;;;;;;;17.88;13.88;;;18.50;99.90;;;;;;5047483;28;20053;-75
2023/08/22 06:19:51;;;;;;;17.02;13.57;;;18.60;99.90;;;;;;5044276;28;20505;-75
2023/08/22 06:22:17;;;;;;;15.90;14.20;;;18.70;99.90;;;;;;5039776;28;20495;-76
2023/08/22 06:24:42;;;;;;;18.90;15.15;;;18.80;99.90;;;;;;5044362;28;20406;-75
2023/08/22 06:27:08;;;;;;;15.60;13.98;;;18.80;99.90;;;;;;5042592;28;20043;-75
2023/08/22 06:29:34;;;;;;;17.63;14.85;;;19.00;99.90;;;;;;5047973;28;20043;-75
2023/08/22 06:32:02;;;;;;;17.60;14.30;;;19.10;99.90;;;;;;5048802;28;20377;-76
2023/08/22 06:34:30;;;;;;;17.67;14.10;;;19.20;99.90;;;;;;5048108;28;20045;-76
2023/08/22 06:36:56;;;;;;;17.17;14.95;;;19.20;99.90;;;;;;5048217;28;20539;-75
2023/08/22 06:39:21;;;;;;;15.85;14.02;;;19.30;99.90;;;;;;5052067;28;20120;-74
2023/08/22 06:41:47;;;;;;;16.48;14.77;;;19.40;99.90;;;;;;5050701;28;20071;-75
2023/08/22 06:44:13;;;;;;;16.58;13.93;;;19.50;99.90;;;;;;5050314;28;20049;-74
2023/08/22 06:46:39;;;;;;;16.20;13.73;;;19.60;99.90;;;;;;5046960;28;20095;-74
2023/08/22 06:49:04;;;;;;;16.90;14.32;;;19.70;99.90;;;;;;5044802;28;20047;-74
2023/08/22 06:51:32;;;;;;;17.35;14.38;;;19.80;99.90;;;;;;5045450;28;20049;-74
2023/08/22 06:53:58;;;;;;;16.73;14.13;;;19.90;99.90;;;;;;5051050;28;20071;-74
2023/08/22 06:56:24;;;;;;;17.10;14.55;;;19.90;99.90;;;;;;5051494;28;20048;-74
2023/08/22 06:58:50;;;;;;;17.40;14.63;;;20.00;99.90;;;;;;5050759;28;20037;-75
2023/08/22 07:01:16;;;;;;;21.33;14.32;;;20.00;99.90;;;;;;5050668;28;20604;-74
2023/08/22 07:03:42;;;;;;;17.90;13.77;;;20.10;99.90;;;;;;5045528;28;20050;-74
2023/08/22 07:06:08;;;;;;;16.90;13.40;;;20.20;99.90;;;;;;5049682;28;20048;-74
2023/08/22 07:08:33;;;;;;;15.30;12.73;;;20.30;99.90;;;;;;5054549;28;20045;-74
2023/08/22 07:11:02;;;;;;;18.05;13.63;;;20.30;99.90;;;;;;5049896;28;20070;-74
2023/08/22 07:13:28;;;;;;;16.75;12.57;;;20.40;99.90;;;;;;5043554;28;20051;-74
2023/08/22 07:15:54;;;;;;;14.55;12.70;;;20.50;99.90;;;;;;5049357;28;20040;-74
2023/08/22 07:18:20;;;;;;;15.23;13.05;;;20.50;99.90;;;;;;5049876;28;20041;-74
2023/08/22 07:20:46;;;;;;;17.17;13.52;;;20.60;99.90;;;;;;5050321;28;20116;-74
2023/08/22 07:23:15;;;;;;;13.95;12.15;;;20.60;99.90;;;;;;5052275;28;20051;-74
2023/08/22 07:25:41;;;;;;;13.82;12.15;;;20.60;99.90;;;;;;5039379;28;20148;-74
2023/08/22 07:28:08;;;;;;;16.05;12.60;;;20.70;99.90;;;;;;5044347;28;20135;-74
2023/08/22 07:30:33;;;;;;;14.68;11.77;;;20.80;99.90;;;;;;5040884;28;20053;-74
2023/08/22 07:32:59;;;;;;;14.93;11.52;;;20.80;99.90;;;;;;5044112;28;20049;-75
2023/08/22 07:35:27;;;;;;;15.40;11.65;;;20.90;99.90;;;;;;5050550;28;20037;-74
2023/08/22 07:37:53;;;;;;;15.43;10.70;;;21.00;99.90;;;;;;5051984;28;20064;-74
2023/08/22 07:40:19;;;;;;;16.30;10.65;;;21.00;99.90;;;;;;5051084;28;20225;-75
2023/08/22 07:42:44;;;;;;;12.98;10.60;;;21.00;99.90;;;;;;5050719;28;20090;-74
2023/08/22 07:45:10;;;;;;;15.43;10.13;;;21.10;99.90;;;;;;5044745;28;20045;-74
2023/08/22 07:47:36;;;;;;;13.48;10.50;;;21.20;99.90;;;;;;5039173;28;20464;-74
2023/08/22 07:50:03;;;;;;;13.23;9.60;;;21.20;99.90;;;;;;5049281;28;20097;-74
2023/08/22 07:52:30;;;;;;;15.18;10.13;;;21.30;99.90;;;;;;5050273;28;20638;-75
2023/08/22 07:54:56;;;;;;;13.27;9.60;;;21.40;99.90;;;;;;5051247;28;20040;-74
2023/08/22 07:57:21;;;;;;;11.98;9.27;;;21.50;99.90;;;;;;5051566;28;20041;-74
2023/08/22 07:59:47;;;;;;;13.00;9.10;;;21.60;99.90;;;;;;5051145;28;20045;-74
2023/08/22 08:02:13;;;;;;;13.88;9.13;;;21.60;99.90;;;;;;5048906;28;20041;-75
2023/08/22 08:04:38;;;;;;;12.32;8.48;;;21.70;99.90;;;;;;5043554;28;20056;-74
2023/08/22 08:07:04;;;;;;;10.23;7.40;;;21.70;99.90;;;;;;5042086;28;20524;-75
2023/08/22 08:09:30;;;;;;;11.90;7.18;;;21.70;99.90;;;;;;5048172;28;20049;-75
2023/08/22 08:11:56;;;;;;;9.35;7.20;;;21.80;99.90;;;;;;5066665;28;20404;-74
2023/08/22 08:14:22;;;;;;;10.32;6.22;;;21.90;99.90;;;;;;5050600;28;20041;-75
2023/08/22 08:16:48;;;;;;;10.52;6.15;;;21.90;99.90;;;;;;5043948;28;20053;-75
2023/08/22 08:19:15;;;;;;;11.73;6.95;;;22.00;99.90;;;;;;5037398;28;20127;-74
2023/08/22 08:21:41;;;;;;;9.40;5.78;;;22.10;99.90;;;;;;5036100;28;20045;-74
2023/08/22 08:24:07;;;;;;;10.43;5.95;;;22.20;99.90;;;;;;5049315;28;20045;-74
2023/08/22 08:26:33;;;;;;;9.43;6.13;;;22.30;99.90;;;;;;5051013;28;20053;-75
2023/08/22 08:28:59;;;;;;;10.25;5.07;;;22.40;99.90;;;;;;5049360;28;20500;-74
2023/08/22 08:31:24;;;;;;;9.07;5.00;;;22.50;99.90;;;;;;5048172;28;20049;-74
2023/08/22 08:33:50;;;;;;;6.57;4.40;;;22.60;99.90;;;;;;5050325;28;20072;-74
2023/08/22 08:36:17;;;;;;;6.07;4.20;;;22.60;99.90;;;;;;5039162;28;20120;-74
2023/08/22 08:38:43;;;;;;;;;;;22.60;99.90;;;;;;5050430;28;20032;-75
2023/08/22 08:41:09;;;;;;;6.27;3.90;;;22.60;99.90;;;;;;5050107;28;20054;-75
2023/08/22 08:43:35;;;;;;;7.78;3.53;;;22.70;99.90;;;;;;5050265;28;20041;-74
2023/08/22 08:46:03;;;;;;;6.40;3.80;;;22.70;99.90;;;;;;5049521;28;20532;-75
2023/08/22 08:48:30;;;;;;;5.80;3.63;;;22.70;99.90;;;;;;5050644;28;20099;-75
2023/08/22 08:50:58;;;;;;;6.65;3.58;;;22.70;99.90;;;;;;5048185;28;20033;-75
2023/08/22 08:53:26;;;;;;;7.05;3.33;;;22.70;99.90;;;;;;5043724;28;20060;-75
2023/08/22 08:55:52;;;;;;;8.00;2.88;;;22.70;99.90;;;;;;5050603;28;20029;-75
2023/08/22 08:58:17;;;;;;;4.38;2.25;;;22.70;99.90;;;;;;5051841;28;20049;-74
2023/08/22 09:00:44;;;;;;;5.07;2.20;;;22.80;99.90;;;;;;5051226;28;20044;-75
2023/08/22 09:03:10;;;;;;;6.45;2.47;;;22.80;99.90;;;;;;5045191;28;20416;-74
2023/08/22 09:05:37;;;;;;;5.78;2.25;;;22.80;99.90;;;;;;5048710;28;20723;-75
2023/08/22 09:08:19;;;;;;;6.53;2.03;;;22.90;99.90;;;;;;5050678;28;20477;-75
2023/08/22 09:10:52;;;;;;;4.47;2.03;;;22.90;99.90;;;;;;5053116;28;20095;-74
2023/08/22 09:13:29;;;;;;;3.22;1.63;;;22.90;99.90;;;;;;5048054;28;20496;-74
2023/08/22 09:16:02;;;;;;;3.10;1.77;;;22.90;99.90;;;;;;5048178;28;20049;-75
2023/08/22 09:18:28;;;;;;;3.08;1.40;;;23.00;99.90;;;;;;5048547;28;20045;-75
2023/08/22 09:21:02;;;;;;;3.03;1.48;;;23.10;99.90;;;;;;5065175;28;20437;-75
2023/08/22 09:23:30;;;;;;;3.95;1.63;;;23.10;99.90;;;;;;5049782;28;20044;-75
2023/08/22 09:25:55;;;;;;;;;;;23.10;99.90;;;;;;5048687;28;20496;-75
2023/08/22 09:28:22;;;;;;;3.80;1.70;;;23.10;99.90;;;;;;5043290;28;19924;-75
2023/08/22 09:31:08;;;;;;;7.88;2.13;;;23.10;99.90;;;;;;5048527;28;20113;-75
2023/08/22 09:33:47;;;;;;;3.42;1.80;;;23.10;99.90;;;;;;5042313;28;20056;-75
2023/08/22 09:36:13;;;;;;;4.43;1.83;;;23.10;99.90;;;;;;5047443;28;22083;-75
2023/08/22 09:38:53;;;;;;;3.97;1.73;;;23.10;99.90;;;;;;5049620;28;20484;-75
2023/08/22 09:41:23;;;;;;;3.55;1.83;;;23.00;99.90;;;;;;5049438;28;20029;-75
2023/08/22 09:43:54;;;;;;;3.72;1.70;;;23.00;99.90;;;;;;5049040;28;20088;-75
2023/08/22 09:46:21;;;;;;;5.22;1.77;;;23.00;99.90;;;;;;5048673;28;20282;-75
2023/08/22 09:48:50;;;;;;;3.13;1.30;;;23.00;99.90;;;;;;5048744;28;20091;-75
2023/08/22 09:51:20;;;;;;;3.50;1.40;;;23.00;99.90;;;;;;5050033;28;20136;-75
2023/08/22 09:53:51;;;;;;;2.38;1.30;;;23.10;99.90;;;;;;5046304;28;20041;-75
2023/08/22 09:56:20;;;;;;;3.13;1.30;;;23.20;99.90;;;;;;5045434;28;20045;-75
2023/08/22 09:58:46;;;;;;;3.65;1.33;;;23.40;99.90;;;;;;5048306;28;20045;-75
2023/08/22 10:01:16;;;;;;;3.58;1.63;;;23.50;99.90;;;;;;5046344;28;20053;-75
2023/08/22 10:03:46;;;;;;;4.03;1.60;;;23.60;99.90;;;;;;5064642;28;20116;-75
2023/08/22 10:06:13;;;;;;;3.75;1.90;;;23.70;99.90;;;;;;5047251;28;20049;-75
2023/08/22 10:08:43;;;;;;;;;;;23.70;99.90;;;;;;5040462;28;20508;-75
2023/08/22 10:11:11;;;;;;;4.43;1.50;;;23.70;99.90;;;;;;5036010;28;20351;-78
2023/08/22 10:13:38;;;;;;;3.63;1.65;;;23.80;99.90;;;;;;5038045;28;20076;-78
2023/08/22 10:16:07;;;;;;;3.60;1.48;;;23.90;99.90;;;;;;5051616;28;20128;-77
2023/08/22 10:18:35;;;;;;;4.83;1.33;;;23.90;99.90;;;;;;5067676;28;20052;-77
2023/08/22 10:21:03;;;;;;;4.43;1.50;;;23.90;99.90;;;;;;5050609;28;20037;-74
2023/08/22 10:23:44;;;;;;;4.30;1.40;;;23.90;99.90;;;;;;5047404;28;20083;-76
2023/08/22 10:26:10;;;;;;;3.67;1.50;;;23.90;99.90;;;;;;5052575;28;20079;-75
2023/08/22 10:28:43;;;;;;;3.28;1.42;;;23.90;99.90;;;;;;5049214;28;20062;-76
2023/08/22 10:31:08;;;;;;;2.95;1.35;;;24.00;99.90;;;;;;5044615;28;20860;-75
2023/08/22 10:33:34;;;;;;;3.95;1.45;;;24.20;99.90;;;;;;5047176;28;20056;-76
2023/08/22 10:36:16;;;;;;;3.83;1.48;;;24.40;99.90;;;;;;5049848;28;20045;-75
2023/08/22 10:38:57;;;;;;;4.03;1.50;;;24.40;99.90;;;;;;5039491;28;20604;-75
2023/08/22 10:42:00;;;;;;;1.88;1.00;;;24.40;99.90;;;;;;5041820;28;20041;-74
2023/08/22 10:44:30;;;;;;;2.40;1.30;;;24.50;99.90;;;;;;4993253;28;20717;-73
2023/08/22 10:47:01;;;;;;;2.10;1.10;;;24.60;99.90;;;;;;5031469;28;20110;-72
2023/08/22 10:49:34;;;;;;;4.78;1.33;;;24.70;99.90;;;;;;5041996;28;20056;-73
2023/08/22 10:52:03;;;;;;;2.85;1.20;;;24.80;99.90;;;;;;5052251;28;20734;-72
2023/08/22 10:54:31;;;;;;;3.28;1.67;;;24.90;99.90;;;;;;5046745;28;20056;-73
2023/08/22 10:57:15;;;;;;;2.88;1.35;;;24.90;99.90;;;;;;5046909;28;20044;-74
2023/08/22 10:59:59;;;;;;;2.88;1.60;;;24.90;99.90;;;;;;5041595;28;20136;-73
2023/08/22 11:02:33;;;;;;;4.28;1.48;;;24.80;99.90;;;;;;5044263;28;20387;-73
2023/08/22 11:05:01;;;;;;;4.70;1.23;;;24.80;99.90;;;;;;5040180;28;20048;-73
2023/08/22 11:07:28;;;;;;;3.55;1.20;;;24.90;99.90;;;;;;5050800;28;20819;-74
2023/08/22 11:09:54;;;;;;;;;;;25.00;99.90;;;;;;5051505;28;20045;-74
2023/08/22 11:12:23;;;;;;;4.80;1.58;;;25.10;99.90;;;;;;5049331;28;20015;-74
2023/08/22 11:14:51;;;;;;;3.40;1.40;;;25.10;99.90;;;;;;5049476;28;20033;-73
2023/08/22 11:17:19;;;;;;;3.33;1.13;;;25.20;99.90;;;;;;5050925;28;20080;-74
2023/08/22 11:19:46;;;;;;;3.20;1.00;;;25.30;99.90;;;;;;5044873;28;20040;-73
2023/08/22 11:22:11;;;;;;;2.83;1.10;;;25.20;99.90;;;;;;5041091;28;20053;-73
2023/08/22 11:24:44;;;;;;;4.88;1.15;;;25.20;99.90;;;;;;5047528;28;20071;-73
2023/08/22 11:27:10;;;;;;;4.32;1.42;;;25.20;99.90;;;;;;5049356;28;20053;-74
2023/08/22 11:29:46;;;;;;;2.78;1.20;;;25.20;99.90;;;;;;5050330;28;20041;-73
2023/08/22 11:32:44;;;;;;;3.45;1.50;;;25.10;99.90;;;;;;5037265;28;20041;-73
2023/08/22 11:35:12;;;;;;;2.33;1.20;;;25.10;99.90;;;;;;5022369;28;20056;-74
2023/08/22 11:37:40;;;;;;;6.45;1.27;;;25.10;99.90;;;;;;5047880;28;20041;-74
2023/08/22 11:40:10;;;;;;;1.95;1.10;;;25.20;99.90;;;;;;5043074;28;20052;-74
2023/08/22 11:42:37;;;;;;;4.13;1.13;;;25.20;99.50;;;;;;5046931;28;20134;-74
2023/08/22 11:45:13;;;;;;;4.45;1.42;;;25.30;99.40;;;;;;5048094;28;20037;-74
2023/08/22 11:47:46;;;;;;;1.92;1.00;;;25.30;99.50;;;;;;5049678;28;20149;-74
2023/08/22 11:50:16;;;;;;;2.83;1.23;;;25.40;98.50;;;;;;5050962;28;20047;-74
2023/08/22 11:52:43;;;;;;;3.28;1.15;;;25.30;99.00;;;;;;5045798;28;20048;-74
2023/08/22 11:55:11;;;;;;;3.55;1.00;;;25.40;99.40;;;;;;5046536;28;20056;-73
2023/08/22 11:57:41;;;;;;;3.90;1.20;;;25.30;98.70;;;;;;5048150;28;20045;-74
2023/08/22 12:00:10;;;;;;;4.30;1.23;;;25.40;98.50;;;;;;5043441;28;20041;-74
2023/08/22 12:02:36;;;;;;;3.75;1.30;;;25.40;98.50;;;;;;5046107;28;20076;-73
2023/08/22 12:05:03;;;;;;;2.72;0.93;;;25.50;98.20;;;;;;5044798;28;20057;-74
2023/08/22 12:07:40;;;;;;;4.40;1.10;;;25.50;98.30;;;;;;5057733;28;20067;-74
2023/08/22 12:10:07;;;;;;;3.28;1.05;;;25.60;98.30;;;;;;5067688;28;20045;-73
2023/08/22 12:12:33;;;;;;;2.85;1.30;;;25.70;98.30;;;;;;5065250;28;20056;-74
2023/08/22 12:14:59;;;;;;;4.03;1.30;;;25.80;98.40;;;;;;5049797;28;20051;-74
2023/08/22 12:17:25;;;;;;;2.10;1.13;;;25.80;97.80;;;;;;5042754;28;20710;-73
2023/08/22 12:19:51;;;;;;;2.85;1.13;;;25.90;97.90;;;;;;5040067;28;20049;-73
2023/08/22 12:22:17;;;;;;;4.03;1.00;;;25.90;97.40;;;;;;5044596;28;20099;-74
2023/08/22 12:24:44;;;;;;;3.00;1.20;;;25.90;97.30;;;;;;5048714;28;20037;-74
2023/08/22 12:27:13;;;;;;;2.45;1.10;;;26.00;97.50;;;;;;5043793;28;20056;-74
2023/08/22 12:29:40;;;;;;;1.27;0.70;;;26.10;97.80;;;;;;5041939;28;20044;-73
2023/08/22 12:32:06;;;;;;;2.50;0.77;;;26.10;96.60;;;;;;5039422;28;20049;-73
2023/08/22 12:34:31;;;;;;;1.58;0.70;;;26.10;96.20;;;;;;5039247;28;20047;-73
2023/08/22 12:36:58;;;;;;;4.73;1.20;;;26.20;96.10;;;;;;5044917;28;20048;-73
2023/08/22 12:39:24;;;;;;;2.83;1.17;;;26.20;96.40;;;;;;5045411;28;20072;-74